Time;durP1;ratioP1;P1;durP2;ratioP2;P2;SDS_P1;SDS_P2;PMS_P1;PMS_P2;Temp;Humidity;BMP_temperature;BMP_pressure;BME280_temperature;BME280_humidity;BME280_pressure;Samples;Min_cycle;Max_cycle;Signal;HPM_P1;HPM_P2
2022/09/21 00:00:52;;;;;;;0.23;0.23;;;10.40;99.90;;;;;;5030191;28;20182;-78
2022/09/21 00:03:18;;;;;;;0.30;0.30;;;10.30;99.90;;;;;;5028610;28;20187;-78
2022/09/21 00:05:44;;;;;;;0.23;0.23;;;10.30;99.90;;;;;;5028160;28;20669;-78
2022/09/21 00:08:11;;;;;;;0.57;0.57;;;10.30;99.90;;;;;;5029559;28;20276;-78
2022/09/21 00:10:38;;;;;;;0.20;0.20;;;10.30;99.90;;;;;;5029213;28;20698;-78
2022/09/21 00:13:04;;;;;;;0.70;0.50;;;10.30;99.90;;;;;;5032180;28;20184;-78
2022/09/21 00:15:30;;;;;;;0.40;0.30;;;10.20;99.90;;;;;;5029521;28;20290;-79
2022/09/21 00:17:57;;;;;;;0.10;0.10;;;10.20;99.90;;;;;;5030060;28;20213;-78
2022/09/21 00:20:24;;;;;;;0.23;0.23;;;10.10;99.90;;;;;;5030628;28;20263;-78
2022/09/21 00:22:51;;;;;;;0.27;0.27;;;10.00;99.90;;;;;;5031625;28;20184;-78
2022/09/21 00:25:18;;;;;;;0.40;0.40;;;10.00;99.90;;;;;;5028149;28;20214;-78
2022/09/21 00:27:46;;;;;;;0.20;0.20;;;9.90;99.90;;;;;;5029050;28;21668;-78
2022/09/21 00:30:12;;;;;;;0.17;0.17;;;9.70;99.90;;;;;;5028641;28;20213;-78
2022/09/21 00:32:38;;;;;;;0.27;0.27;;;9.40;99.90;;;;;;5027388;28;20216;-78
2022/09/21 00:35:06;;;;;;;0.23;0.23;;;9.20;99.90;;;;;;5027274;28;20267;-78
2022/09/21 00:37:32;;;;;;;0.10;0.10;;;9.20;99.90;;;;;;5030368;28;20561;-78
2022/09/21 00:39:57;;;;;;;0.30;0.30;;;9.10;99.90;;;;;;5033615;28;20191;-79
2022/09/21 00:42:29;;;;;;;0.30;0.30;;;9.00;99.90;;;;;;5033431;28;20197;-78
2022/09/21 00:44:55;;;;;;;1.90;0.83;;;9.10;99.90;;;;;;5035047;28;20213;-78
2022/09/21 00:47:26;;;;;;;0.10;0.10;;;9.20;99.90;;;;;;5035684;28;20273;-78
2022/09/21 00:49:54;;;;;;;0.33;0.33;;;9.20;99.90;;;;;;5035368;28;20183;-78
2022/09/21 00:52:23;;;;;;;0.10;0.10;;;9.20;99.90;;;;;;5036599;28;20235;-78
2022/09/21 00:54:53;;;;;;;0.30;0.30;;;9.20;99.90;;;;;;5032578;28;20584;-78
2022/09/21 00:57:20;;;;;;;0.27;0.27;;;9.10;99.90;;;;;;5032420;28;20183;-78
2022/09/21 00:59:49;;;;;;;0.10;0.10;;;9.20;99.90;;;;;;5033056;28;20671;-78
2022/09/21 01:02:15;;;;;;;0.60;0.60;;;9.30;99.90;;;;;;5034696;28;20179;-78
2022/09/21 01:04:41;;;;;;;0.20;0.20;;;9.30;99.90;;;;;;5035637;28;20263;-78
2022/09/21 01:07:12;;;;;;;0.10;0.10;;;9.20;99.90;;;;;;5031068;28;20576;-78
2022/09/21 01:09:41;;;;;;;0.20;0.20;;;9.20;99.90;;;;;;5049427;28;20186;-78
2022/09/21 01:12:41;;;;;;;0.47;0.20;;;9.20;99.90;;;;;;5034872;28;20651;-78
2022/09/21 01:15:26;;;;;;;1.03;0.20;;;9.20;99.90;;;;;;5033481;28;21010;-79
2022/09/21 01:18:19;;;;;;;0.20;0.20;;;9.10;99.90;;;;;;5013357;28;20286;-78
2022/09/21 01:21:10;;;;;;;0.30;0.30;;;9.10;99.90;;;;;;5030472;28;20182;-78
2022/09/21 01:24:33;;;;;;;0.63;0.43;;;9.00;99.90;;;;;;5032516;28;20928;-78
2022/09/21 01:27:17;;;;;;;0.30;0.30;;;8.80;99.90;;;;;;4983803;28;20661;-78
2022/09/21 01:30:01;;;;;;;0.17;0.17;;;8.80;99.90;;;;;;4977774;28;20183;-78
2022/09/21 01:32:51;;;;;;;0.10;0.10;;;8.70;99.90;;;;;;5016227;28;20222;-78
2022/09/21 01:35:31;;;;;;;0.10;0.10;;;8.60;99.90;;;;;;5029200;28;20221;-78
2022/09/21 01:38:01;;;;;;;2.57;0.23;;;8.60;99.90;;;;;;5023738;28;20202;-78
2022/09/21 01:40:35;;;;;;;0.10;0.10;;;8.60;99.90;;;;;;5027164;28;20176;-78
2022/09/21 01:43:03;;;;;;;0.20;0.20;;;8.60;99.90;;;;;;5028872;28;20466;-78
2022/09/21 01:45:39;;;;;;;0.10;0.10;;;8.60;99.90;;;;;;5024684;28;20225;-78
2022/09/21 01:48:06;;;;;;;0.73;0.20;;;8.50;99.90;;;;;;5025628;28;20297;-78
2022/09/21 01:50:37;;;;;;;0.10;0.10;;;8.50;99.90;;;;;;5024341;28;20683;-78
2022/09/21 01:53:23;;;;;;;0.13;0.13;;;8.50;99.90;;;;;;5025695;28;20213;-78
2022/09/21 01:55:58;;;;;;;0.20;0.20;;;8.40;99.90;;;;;;5028352;28;20200;-78
2022/09/21 01:58:38;;;;;;;0.20;0.10;;;8.40;99.90;;;;;;5027306;28;20179;-78
2022/09/21 02:01:07;;;;;;;0.30;0.30;;;8.40;99.90;;;;;;5030505;28;20184;-78
2022/09/21 02:03:41;;;;;;;0.17;0.17;;;8.40;99.90;;;;;;5028552;28;20648;-78
2022/09/21 02:06:08;;;;;;;0.10;0.10;;;8.30;99.90;;;;;;5029231;28;20188;-78
2022/09/21 02:08:36;;;;;;;0.10;0.10;;;8.30;99.90;;;;;;5025733;28;20204;-78
2022/09/21 02:11:04;;;;;;;0.20;0.20;;;8.30;99.90;;;;;;5024723;28;20183;-78
2022/09/21 02:13:35;;;;;;;0.20;0.20;;;8.30;99.90;;;;;;5029423;28;20209;-78
2022/09/21 02:16:12;;;;;;;0.20;0.20;;;8.30;99.90;;;;;;5025094;28;20183;-78
2022/09/21 02:19:01;;;;;;;0.10;0.10;;;8.30;99.90;;;;;;5025799;28;20203;-78
2022/09/21 02:21:41;;;;;;;0.10;0.10;;;8.40;99.90;;;;;;5032991;28;20247;-78
2022/09/21 02:24:10;;;;;;;0.20;0.20;;;8.40;99.90;;;;;;5031633;28;20205;-78
2022/09/21 02:26:48;;;;;;;0.23;0.23;;;8.50;99.90;;;;;;5031712;28;20937;-78
2022/09/21 02:29:38;;;;;;;0.20;0.20;;;8.40;99.90;;;;;;5031218;28;20189;-78
2022/09/21 02:32:37;;;;;;;0.10;0.10;;;8.40;99.90;;;;;;5030545;28;20689;-78
2022/09/21 02:35:08;;;;;;;0.10;0.10;;;8.40;99.90;;;;;;5030397;28;20602;-78
2022/09/21 02:37:42;;;;;;;0.17;0.17;;;8.30;99.90;;;;;;5029372;28;20604;-78
2022/09/21 02:40:29;;;;;;;0.13;0.13;;;8.20;99.90;;;;;;5029787;28;20182;-78
2022/09/21 02:43:00;;;;;;;0.10;0.10;;;8.20;99.90;;;;;;5031553;28;20807;-78
2022/09/21 02:45:31;;;;;;;0.10;0.10;;;8.20;99.90;;;;;;5030111;28;20214;-78
2022/09/21 02:47:59;;;;;;;0.10;0.10;;;8.30;99.90;;;;;;5029602;28;20179;-78
2022/09/21 02:50:41;;;;;;;0.10;0.10;;;8.30;99.90;;;;;;5030263;28;20225;-78
2022/09/21 02:53:10;;;;;;;0.10;0.10;;;8.30;99.90;;;;;;5031728;28;20186;-78
2022/09/21 02:55:37;;;;;;;0.10;0.10;;;8.40;99.90;;;;;;5028448;28;20695;-78
2022/09/21 02:58:06;;;;;;;0.10;0.10;;;8.40;99.90;;;;;;5033732;28;20189;-78
2022/09/21 03:00:33;;;;;;;0.00;0.00;;;8.40;99.90;;;;;;5032507;28;20170;-78
2022/09/21 03:02:59;;;;;;;0.10;0.10;;;8.40;99.90;;;;;;5028494;28;20182;-78
2022/09/21 03:05:26;;;;;;;0.20;0.20;;;8.40;99.90;;;;;;5029891;28;20267;-78
2022/09/21 03:07:51;;;;;;;0.13;0.13;;;8.50;99.90;;;;;;5027359;28;20215;-78
2022/09/21 03:10:17;;;;;;;0.77;0.77;;;8.60;99.90;;;;;;5045129;28;20229;-78
2022/09/21 03:12:43;;;;;;;0.10;0.10;;;8.40;99.90;;;;;;5030604;28;20219;-78
2022/09/21 03:15:09;;;;;;;0.10;0.10;;;8.30;99.90;;;;;;5030929;28;20223;-78
2022/09/21 03:17:34;;;;;;;0.10;0.10;;;8.30;99.90;;;;;;5028529;28;20240;-78
2022/09/21 03:20:01;;;;;;;0.63;0.30;;;8.20;99.90;;;;;;5033211;28;20174;-78
2022/09/21 03:22:26;;;;;;;0.20;0.20;;;8.10;99.90;;;;;;5031471;28;20216;-78
2022/09/21 03:24:56;;;;;;;0.20;0.20;;;8.20;99.90;;;;;;5033517;28;20646;-78
2022/09/21 03:27:23;;;;;;;0.10;0.10;;;8.20;99.90;;;;;;5028871;28;20177;-77
2022/09/21 03:29:48;;;;;;;0.10;0.10;;;8.20;99.90;;;;;;5031271;28;20693;-78
2022/09/21 03:32:14;;;;;;;0.10;0.10;;;8.20;99.90;;;;;;5031776;28;20179;-78
2022/09/21 03:34:40;;;;;;;0.10;0.10;;;8.30;99.90;;;;;;5030290;28;20716;-78
2022/09/21 03:37:08;;;;;;;0.10;0.10;;;8.30;99.90;;;;;;5028366;28;20186;-78
2022/09/21 03:39:34;;;;;;;0.10;0.10;;;8.30;99.90;;;;;;5029027;28;20177;-78
2022/09/21 03:42:01;;;;;;;0.30;0.20;;;8.30;99.90;;;;;;5031588;28;20267;-78
2022/09/21 03:44:27;;;;;;;0.10;0.10;;;8.30;99.90;;;;;;5031233;28;20251;-78
2022/09/21 03:46:53;;;;;;;0.10;0.10;;;8.40;99.90;;;;;;5029656;28;20178;-78
2022/09/21 03:49:18;;;;;;;0.20;0.20;;;8.40;99.90;;;;;;5028466;28;20179;-78
2022/09/21 03:51:44;;;;;;;0.27;0.20;;;8.40;99.90;;;;;;5025643;28;20194;-78
2022/09/21 03:54:11;;;;;;;0.23;0.23;;;8.50;99.90;;;;;;5028723;28;20268;-78
2022/09/21 03:56:36;;;;;;;1.33;0.37;;;8.50;99.90;;;;;;5027905;28;20186;-78
2022/09/21 03:59:02;;;;;;;0.10;0.10;;;8.60;99.90;;;;;;5031361;28;21940;-78
2022/09/21 04:01:28;;;;;;;0.30;0.23;;;8.60;99.90;;;;;;5030081;28;20643;-78
2022/09/21 04:03:54;;;;;;;0.33;0.33;;;8.60;99.90;;;;;;5028706;28;20174;-78
2022/09/21 04:06:19;;;;;;;0.13;0.13;;;8.50;99.90;;;;;;5029957;28;20194;-78
2022/09/21 04:08:45;;;;;;;0.13;0.13;;;8.50;99.90;;;;;;5028175;28;20181;-78
2022/09/21 04:11:19;;;;;;;0.20;0.20;;;8.60;99.90;;;;;;5028738;28;20195;-78
2022/09/21 04:13:49;;;;;;;0.43;0.33;;;8.60;99.90;;;;;;5029342;28;20630;-78
2022/09/21 04:16:16;;;;;;;0.10;0.10;;;8.60;99.90;;;;;;5029655;28;20265;-78
2022/09/21 04:18:42;;;;;;;0.37;0.20;;;8.60;99.90;;;;;;5030365;28;20178;-78
2022/09/21 04:21:08;;;;;;;0.10;0.10;;;8.50;99.90;;;;;;5029851;28;20179;-78
2022/09/21 04:23:34;;;;;;;0.13;0.13;;;8.60;99.90;;;;;;5030360;28;20178;-78
2022/09/21 04:26:01;;;;;;;0.40;0.20;;;8.50;99.90;;;;;;5030230;28;20213;-78
2022/09/21 04:28:27;;;;;;;0.33;0.33;;;8.50;99.90;;;;;;5028761;28;20197;-78
2022/09/21 04:30:53;;;;;;;0.10;0.10;;;8.40;99.90;;;;;;5030863;28;20192;-78
2022/09/21 04:33:19;;;;;;;0.10;0.10;;;8.30;99.90;;;;;;5029382;28;20240;-78
2022/09/21 04:35:44;;;;;;;0.23;0.23;;;8.30;99.90;;;;;;5025718;28;20198;-78
2022/09/21 04:38:11;;;;;;;0.17;0.17;;;8.30;99.90;;;;;;5029210;28;20178;-78
2022/09/21 04:40:37;;;;;;;0.10;0.10;;;8.30;99.90;;;;;;5029870;28;20652;-78
2022/09/21 04:43:03;;;;;;;0.10;0.10;;;8.20;99.90;;;;;;5030623;28;20204;-78
2022/09/21 04:45:28;;;;;;;3.30;0.30;;;8.20;99.90;;;;;;5028584;28;20218;-78
2022/09/21 04:47:54;;;;;;;0.10;0.10;;;8.20;99.90;;;;;;5028835;28;20187;-78
2022/09/21 04:50:19;;;;;;;0.27;0.27;;;8.10;99.90;;;;;;5029744;28;20207;-78
2022/09/21 04:52:45;;;;;;;0.00;0.00;;;8.20;99.90;;;;;;5030220;28;20180;-78
2022/09/21 04:55:10;;;;;;;0.10;0.10;;;8.10;99.90;;;;;;5030627;28;20303;-78
2022/09/21 04:57:36;;;;;;;0.20;0.20;;;8.10;99.90;;;;;;5027928;28;20190;-77
2022/09/21 05:00:04;;;;;;;0.20;0.20;;;8.00;99.90;;;;;;5029454;28;20206;-77
2022/09/21 05:02:30;;;;;;;0.57;0.53;;;8.00;99.90;;;;;;5029645;28;20289;-78
2022/09/21 05:04:55;;;;;;;0.20;0.20;;;7.90;99.90;;;;;;5028993;28;20229;-78
2022/09/21 05:07:21;;;;;;;0.00;0.00;;;7.80;99.90;;;;;;5028022;28;20567;-77
2022/09/21 05:10:01;;;;;;;0.30;0.27;;;7.80;99.90;;;;;;5030318;28;20661;-77
2022/09/21 05:12:27;;;;;;;0.37;0.37;;;7.70;99.90;;;;;;5027810;28;20190;-78
2022/09/21 05:14:54;;;;;;;0.37;0.37;;;7.80;99.90;;;;;;5027471;28;20333;-78
2022/09/21 05:17:21;;;;;;;0.10;0.10;;;7.90;99.90;;;;;;5027906;28;20228;-78
2022/09/21 05:19:47;;;;;;;0.97;0.20;;;7.90;99.90;;;;;;5031316;28;20197;-78
2022/09/21 05:22:13;;;;;;;0.20;0.20;;;8.00;99.90;;;;;;5029986;28;20190;-80
2022/09/21 05:24:38;;;;;;;0.10;0.10;;;8.00;99.90;;;;;;5028575;28;20201;-80
2022/09/21 05:27:04;;;;;;;0.17;0.17;;;8.10;99.90;;;;;;5034101;28;21288;-80
2022/09/21 05:29:30;;;;;;;0.20;0.20;;;8.10;99.90;;;;;;5030780;28;20189;-80
2022/09/21 05:32:34;;;;;;;0.10;0.10;;;8.20;99.90;;;;;;5028178;28;20575;-78
2022/09/21 05:35:12;;;;;;;0.27;0.20;;;8.30;99.90;;;;;;5031329;28;20209;-79
2022/09/21 05:37:37;;;;;;;0.20;0.20;;;8.40;99.90;;;;;;5031237;28;20178;-79
2022/09/21 05:40:04;;;;;;;0.40;0.40;;;8.50;99.90;;;;;;5032848;28;20529;-79
2022/09/21 05:42:31;;;;;;;0.13;0.13;;;8.60;99.90;;;;;;5034218;28;20179;-78
2022/09/21 05:44:56;;;;;;;0.20;0.20;;;8.60;99.90;;;;;;5027985;28;20207;-78
2022/09/21 05:47:35;;;;;;;0.97;0.50;;;8.70;99.90;;;;;;5031984;28;20205;-77
2022/09/21 05:50:27;;;;;;;0.10;0.10;;;8.70;99.90;;;;;;5033661;28;20558;-78
2022/09/21 05:52:58;;;;;;;0.20;0.20;;;8.70;99.90;;;;;;5031653;28;20198;-81
2022/09/21 05:55:54;;;;;;;0.87;0.57;;;8.70;99.90;;;;;;5030887;28;20214;-78
2022/09/21 05:58:25;;;;;;;0.10;0.10;;;8.70;99.90;;;;;;5032477;28;20185;-78
2022/09/21 06:00:56;;;;;;;0.93;0.67;;;8.80;99.90;;;;;;5029881;28;20186;-78
2022/09/21 06:03:27;;;;;;;0.30;0.30;;;9.00;99.90;;;;;;5032345;28;20181;-78
2022/09/21 06:05:52;;;;;;;0.27;0.27;;;9.10;99.90;;;;;;5031075;28;20299;-78
2022/09/21 06:08:18;;;;;;;0.10;0.10;;;9.40;99.90;;;;;;5033294;28;20262;-78
2022/09/21 06:10:44;;;;;;;0.23;0.23;;;9.50;99.90;;;;;;5031533;28;20186;-78
2022/09/21 06:13:09;;;;;;;0.20;0.20;;;9.50;99.90;;;;;;5029986;28;20176;-78
2022/09/21 06:15:39;;;;;;;0.20;0.20;;;9.40;99.90;;;;;;5028410;28;20945;-78
2022/09/21 06:18:05;;;;;;;0.17;0.17;;;9.40;99.90;;;;;;5032852;28;20224;-78
2022/09/21 06:20:31;;;;;;;1.27;0.30;;;9.50;99.90;;;;;;5030439;28;20396;-78
2022/09/21 06:23:02;;;;;;;2.80;0.40;;;9.60;99.90;;;;;;5028783;28;20180;-78
2022/09/21 06:25:27;;;;;;;0.20;0.20;;;9.60;99.90;;;;;;5032388;28;20233;-78
2022/09/21 06:27:54;;;;;;;0.87;0.43;;;9.70;99.90;;;;;;5032251;28;20182;-79
2022/09/21 06:30:19;;;;;;;0.40;0.40;;;9.70;99.90;;;;;;5030746;28;20198;-78
2022/09/21 06:32:45;;;;;;;0.60;0.60;;;9.70;99.90;;;;;;5030569;28;20178;-78
2022/09/21 06:35:10;;;;;;;0.20;0.20;;;9.80;99.90;;;;;;5028978;28;20215;-79
2022/09/21 06:37:38;;;;;;;0.10;0.10;;;9.90;99.90;;;;;;5027863;28;20551;-78
2022/09/21 06:40:05;;;;;;;1.03;0.73;;;9.90;99.90;;;;;;5028691;28;20277;-78
2022/09/21 06:42:31;;;;;;;0.30;0.30;;;10.00;99.90;;;;;;5024971;28;22557;-78
2022/09/21 06:44:56;;;;;;;0.47;0.47;;;10.10;99.90;;;;;;5029945;28;20223;-78
2022/09/21 06:47:22;;;;;;;0.23;0.23;;;10.10;99.90;;;;;;5030055;28;20232;-78
2022/09/21 06:49:47;;;;;;;0.43;0.43;;;10.20;99.90;;;;;;5028712;28;20727;-78
2022/09/21 06:52:13;;;;;;;0.30;0.20;;;10.40;99.90;;;;;;5029501;28;20213;-79
2022/09/21 06:54:39;;;;;;;1.13;0.60;;;10.40;99.90;;;;;;5031343;28;20225;-78
2022/09/21 06:57:05;;;;;;;0.10;0.10;;;10.50;99.90;;;;;;5019759;28;20324;-78
2022/09/21 06:59:30;;;;;;;0.60;0.60;;;10.40;99.90;;;;;;5028061;28;20268;-79
2022/09/21 07:01:57;;;;;;;0.50;0.50;;;10.50;99.90;;;;;;5029299;28;20179;-78
2022/09/21 07:04:23;;;;;;;0.97;0.97;;;10.60;99.90;;;;;;5029328;28;20197;-79
2022/09/21 07:06:49;;;;;;;0.20;0.20;;;10.60;99.90;;;;;;5025116;28;20307;-79
2022/09/21 07:09:15;;;;;;;0.30;0.30;;;10.80;99.90;;;;;;5027602;28;20277;-79
2022/09/21 07:11:40;;;;;;;0.30;0.30;;;10.80;99.90;;;;;;5028285;28;20203;-79
2022/09/21 07:14:06;;;;;;;1.07;0.77;;;10.90;99.90;;;;;;5027404;28;20724;-78
2022/09/21 07:16:32;;;;;;;0.50;0.50;;;10.90;99.90;;;;;;5027128;28;20212;-79
2022/09/21 07:18:58;;;;;;;0.50;0.50;;;11.10;99.90;;;;;;5026646;28;20858;-78
2022/09/21 07:21:23;;;;;;;0.30;0.30;;;11.10;99.90;;;;;;5028891;28;20187;-78
2022/09/21 07:23:49;;;;;;;1.77;0.37;;;11.20;99.90;;;;;;5028104;28;20192;-79
2022/09/21 07:26:15;;;;;;;0.60;0.30;;;11.40;99.90;;;;;;5027232;28;20190;-79
2022/09/21 07:28:40;;;;;;;0.30;0.30;;;11.50;99.90;;;;;;5030564;28;20196;-79
2022/09/21 07:31:08;;;;;;;0.50;0.50;;;11.40;99.90;;;;;;5031160;28;20189;-79
2022/09/21 07:33:34;;;;;;;0.90;0.70;;;11.40;99.90;;;;;;5029570;28;20210;-80
2022/09/21 07:36:02;;;;;;;2.40;0.97;;;11.40;99.90;;;;;;5025038;28;20290;-79
2022/09/21 07:38:28;;;;;;;1.77;0.93;;;11.60;99.90;;;;;;5031765;28;21973;-79
2022/09/21 07:40:53;;;;;;;0.30;0.30;;;11.50;99.90;;;;;;5028707;28;20190;-79
2022/09/21 07:43:19;;;;;;;1.07;0.37;;;11.70;99.90;;;;;;5031672;28;20272;-79
2022/09/21 07:45:54;;;;;;;0.30;0.30;;;11.80;99.90;;;;;;5030413;28;20699;-79
2022/09/21 07:48:21;;;;;;;0.57;0.57;;;11.90;99.90;;;;;;5027656;28;20199;-80
2022/09/21 07:50:48;;;;;;;0.43;0.40;;;12.10;99.90;;;;;;5027846;28;20196;-80
2022/09/21 07:53:16;;;;;;;0.27;0.27;;;12.10;99.90;;;;;;5029181;28;20227;-80
2022/09/21 07:55:42;;;;;;;0.30;0.30;;;12.10;99.90;;;;;;5023698;28;20239;-80
2022/09/21 08:00:51;;;;;;;0.17;0.17;;;12.10;99.90;;;;;;5029020;28;20752;-80
2022/09/21 08:03:17;;;;;;;0.57;0.57;;;12.40;99.90;;;;;;5027306;28;20303;-80
2022/09/21 08:05:43;;;;;;;0.67;0.67;;;12.60;99.90;;;;;;5027759;28;20206;-80
2022/09/21 08:08:08;;;;;;;0.33;0.30;;;12.60;99.90;;;;;;5030173;28;20304;-80
2022/09/21 08:10:34;;;;;;;1.37;0.90;;;12.60;99.90;;;;;;5029618;28;20654;-80
2022/09/21 08:13:00;;;;;;;3.07;2.80;;;12.60;99.90;;;;;;5027724;28;20189;-79
2022/09/21 08:15:26;;;;;;;0.87;0.87;;;12.60;99.90;;;;;;5024209;28;20225;-79
2022/09/21 08:17:52;;;;;;;0.70;0.70;;;12.60;99.90;;;;;;5026642;28;20691;-79
2022/09/21 08:20:18;;;;;;;1.50;0.50;;;12.70;99.90;;;;;;5027652;28;20181;-79
2022/09/21 08:22:44;;;;;;;0.30;0.30;;;12.80;99.90;;;;;;5027952;28;20234;-79
2022/09/21 08:25:09;;;;;;;0.70;0.70;;;12.90;99.90;;;;;;5028920;28;20220;-79
2022/09/21 08:27:35;;;;;;;2.33;1.43;;;13.00;99.90;;;;;;5027231;28;20179;-79
2022/09/21 08:30:02;;;;;;;0.30;0.30;;;13.10;99.90;;;;;;5031492;28;20193;-79
2022/09/21 08:32:27;;;;;;;0.60;0.60;;;13.30;99.90;;;;;;5028039;28;20313;-80
2022/09/21 08:34:53;;;;;;;0.73;0.67;;;13.50;99.90;;;;;;5032109;28;20251;-80
2022/09/21 08:37:20;;;;;;;0.33;0.33;;;13.60;99.90;;;;;;5028659;28;20200;-80
2022/09/21 08:39:46;;;;;;;0.60;0.60;;;13.80;99.90;;;;;;5027405;28;20185;-80
2022/09/21 08:42:30;;;;;;;1.13;0.73;;;14.10;99.90;;;;;;5030991;28;20180;-80
2022/09/21 08:45:01;;;;;;;0.57;0.57;;;14.20;99.90;;;;;;5027222;28;20355;-80
2022/09/21 08:47:48;;;;;;;2.90;0.97;;;14.30;99.90;;;;;;5027956;28;20312;-80
2022/09/21 08:50:36;;;;;;;0.23;0.23;;;14.50;99.90;;;;;;5024625;28;20208;-80
2022/09/21 08:53:15;;;;;;;0.90;0.67;;;14.70;99.90;;;;;;5035369;28;20228;-80
2022/09/21 08:55:41;;;;;;;1.80;0.87;;;14.90;99.90;;;;;;5041250;28;20217;-80
2022/09/21 08:58:23;;;;;;;0.50;0.50;;;14.90;99.90;;;;;;5037100;28;20685;-80
2022/09/21 09:01:20;;;;;;;0.50;0.50;;;14.60;99.90;;;;;;5039566;28;20197;-80
2022/09/21 09:04:23;;;;;;;3.93;1.37;;;14.50;99.90;;;;;;5048782;28;20206;-80
2022/09/21 09:06:55;;;;;;;2.23;0.50;;;14.70;99.90;;;;;;5048798;28;20185;-80
2022/09/21 09:09:47;;;;;;;0.17;0.17;;;14.90;99.90;;;;;;5040381;28;20297;-81
2022/09/21 09:12:21;;;;;;;0.50;0.30;;;15.40;99.90;;;;;;5043899;28;20195;-80
2022/09/21 09:15:02;;;;;;;0.40;0.40;;;15.80;99.90;;;;;;5042884;28;20212;-81
2022/09/21 09:17:39;;;;;;;0.53;0.37;;;15.40;99.90;;;;;;5036357;28;20180;-80
2022/09/21 09:20:19;;;;;;;0.37;0.37;;;15.70;99.90;;;;;;5033581;28;20191;-80
2022/09/21 09:22:54;;;;;;;0.90;0.80;;;16.20;99.90;;;;;;5033799;28;20727;-80
2022/09/21 09:25:23;;;;;;;0.30;0.30;;;16.40;99.90;;;;;;5054821;28;20206;-80
2022/09/21 09:28:03;;;;;;;0.50;0.50;;;16.40;99.90;;;;;;5038635;28;20213;-80
2022/09/21 09:30:33;;;;;;;0.30;0.30;;;15.70;99.90;;;;;;5038704;28;20197;-80
2022/09/21 09:33:05;;;;;;;0.50;0.40;;;16.00;99.90;;;;;;5046679;28;20190;-82
2022/09/21 09:35:42;;;;;;;0.10;0.10;;;16.20;99.90;;;;;;5053848;28;20211;-82
2022/09/21 09:38:26;;;;;;;0.90;0.80;;;16.60;99.90;;;;;;5054075;28;20175;-82
2022/09/21 09:41:11;;;;;;;1.17;0.70;;;16.10;99.90;;;;;;5051067;28;20192;-82
2022/09/21 09:44:24;;;;;;;0.37;0.37;;;16.00;99.90;;;;;;5050112;28;20178;-81
2022/09/21 09:47:16;;;;;;;0.30;0.30;;;15.20;99.90;;;;;;4997017;28;20217;-82
2022/09/21 09:50:20;;;;;;;4.93;0.60;;;15.30;99.90;;;;;;4998120;28;20230;-82
2022/09/21 09:52:47;;;;;;;0.30;0.30;;;16.10;99.90;;;;;;5045751;28;20204;-82
2022/09/21 09:55:22;;;;;;;0.30;0.17;;;16.60;99.90;;;;;;5048243;28;20234;-81
2022/09/21 09:57:48;;;;;;;0.40;0.33;;;16.70;99.90;;;;;;5045529;28;20217;-81
2022/09/21 10:00:17;;;;;;;0.33;0.33;;;17.20;99.90;;;;;;5050790;28;20225;-81
2022/09/21 10:02:48;;;;;;;0.70;0.70;;;17.30;99.90;;;;;;5048262;28;20498;-80
2022/09/21 10:05:23;;;;;;;0.23;0.23;;;17.30;99.90;;;;;;5045613;28;20223;-82
2022/09/21 10:07:50;;;;;;;0.20;0.20;;;16.80;99.90;;;;;;5047568;28;20680;-82
2022/09/21 10:10:35;;;;;;;0.10;0.10;;;16.80;99.90;;;;;;5048500;28;20185;-82
2022/09/21 10:13:14;;;;;;;0.30;0.30;;;16.60;99.90;;;;;;5047478;28;20192;-82
2022/09/21 10:15:52;;;;;;;0.50;0.50;;;17.20;99.90;;;;;;5046492;28;20233;-81
2022/09/21 10:18:19;;;;;;;0.20;0.20;;;17.50;99.90;;;;;;5045861;28;20190;-82
2022/09/21 10:21:06;;;;;;;1.80;0.60;;;17.30;99.90;;;;;;5048223;28;20200;-82
2022/09/21 10:23:33;;;;;;;0.10;0.10;;;16.80;99.90;;;;;;5051055;28;20180;-82
2022/09/21 10:26:09;;;;;;;0.67;0.37;;;17.10;99.90;;;;;;5047865;28;20278;-81
2022/09/21 10:28:35;;;;;;;0.40;0.40;;;17.40;99.90;;;;;;5049913;28;20227;-82
2022/09/21 10:31:36;;;;;;;0.53;0.23;;;17.20;99.90;;;;;;5049193;28;20224;-82
2022/09/21 10:34:15;;;;;;;0.33;0.33;;;17.70;99.90;;;;;;5039387;28;20702;-82
2022/09/21 10:36:50;;;;;;;0.40;0.40;;;17.50;99.90;;;;;;5048616;28;20193;-82
2022/09/21 10:39:21;;;;;;;0.10;0.10;;;17.10;99.90;;;;;;5048350;28;20256;-81
2022/09/21 10:41:52;;;;;;;0.13;0.13;;;17.50;99.90;;;;;;5043599;28;20210;-81
2022/09/21 10:44:20;;;;;;;0.20;0.20;;;17.90;99.90;;;;;;5039085;28;20710;-81
2022/09/21 10:46:48;;;;;;;0.20;0.20;;;17.10;99.90;;;;;;5042651;28;20203;-81
2022/09/21 10:49:20;;;;;;;0.20;0.20;;;17.60;99.90;;;;;;5043255;28;20569;-81
2022/09/21 10:51:47;;;;;;;0.10;0.10;;;17.60;99.90;;;;;;5040360;28;20258;-81
2022/09/21 10:54:23;;;;;;;0.30;0.30;;;17.50;99.90;;;;;;5040018;28;20317;-81
2022/09/21 10:56:52;;;;;;;0.37;0.37;;;17.10;99.90;;;;;;5040759;28;20180;-81
2022/09/21 10:59:17;;;;;;;0.13;0.13;;;17.30;99.90;;;;;;5043538;28;20584;-81
2022/09/21 11:01:48;;;;;;;0.40;0.40;;;17.70;99.90;;;;;;5041590;28;20186;-81
2022/09/21 11:04:47;;;;;;;0.20;0.20;;;17.60;99.90;;;;;;5039837;28;20209;-81
2022/09/21 11:07:19;;;;;;;0.17;0.13;;;16.60;99.90;;;;;;5042008;28;20185;-82
2022/09/21 11:09:53;;;;;;;0.20;0.20;;;17.20;99.90;;;;;;5042602;28;20247;-82
2022/09/21 11:12:46;;;;;;;0.20;0.20;;;16.80;99.90;;;;;;5041056;28;20195;-81
2022/09/21 11:15:19;;;;;;;0.20;0.20;;;16.70;99.90;;;;;;5039021;28;20220;-81
2022/09/21 11:18:14;;;;;;;0.67;0.47;;;16.70;99.90;;;;;;5041194;28;20530;-83
2022/09/21 11:21:08;;;;;;;0.20;0.20;;;16.80;99.90;;;;;;5040335;28;20184;-81
2022/09/21 11:24:02;;;;;;;0.23;0.23;;;16.90;99.90;;;;;;5037254;28;20182;-81
2022/09/21 11:26:50;;;;;;;0.60;0.53;;;17.20;99.90;;;;;;5040497;28;20193;-81
2022/09/21 11:29:43;;;;;;;0.10;0.10;;;17.90;99.90;;;;;;5036611;28;20185;-81
2022/09/21 11:32:39;;;;;;;0.60;0.27;;;18.20;99.90;;;;;;5041014;28;20316;-81
2022/09/21 11:35:11;;;;;;;0.20;0.20;;;18.10;99.90;;;;;;5041475;28;20237;-81
2022/09/21 11:38:04;;;;;;;0.60;0.30;;;18.50;99.90;;;;;;5040703;28;20480;-81
2022/09/21 11:40:48;;;;;;;0.30;0.30;;;18.30;99.90;;;;;;5039655;28;20188;-81
2022/09/21 11:43:52;;;;;;;0.67;0.67;;;18.20;99.90;;;;;;5039391;28;20194;-81
2022/09/21 11:46:39;;;;;;;2.77;0.40;;;17.40;99.90;;;;;;5038953;28;20182;-81
2022/09/21 11:49:43;;;;;;;0.20;0.20;;;17.60;99.90;;;;;;5041245;28;20178;-80
2022/09/21 11:52:23;;;;;;;0.90;0.30;;;18.00;99.90;;;;;;5040799;28;20539;-81
2022/09/21 11:54:58;;;;;;;1.30;0.50;;;17.70;99.90;;;;;;5038217;28;20244;-81
2022/09/21 11:57:27;;;;;;;0.23;0.23;;;17.30;99.90;;;;;;5038730;28;20202;-81
2022/09/21 12:00:16;;;;;;;0.30;0.30;;;17.30;99.90;;;;;;5037129;28;20251;-81
2022/09/21 12:03:33;;;;;;;0.20;0.20;;;17.80;99.90;;;;;;5038086;28;20190;-81
2022/09/21 12:06:09;;;;;;;0.40;0.40;;;18.40;99.90;;;;;;4994601;28;20218;-81
2022/09/21 12:08:57;;;;;;;0.10;0.10;;;18.00;99.90;;;;;;5036669;28;20185;-81
2022/09/21 12:11:42;;;;;;;0.50;0.30;;;17.30;99.90;;;;;;5039692;28;20181;-81
2022/09/21 12:14:31;;;;;;;0.40;0.40;;;17.80;99.90;;;;;;5039592;28;20210;-81
2022/09/21 12:17:20;;;;;;;0.30;0.30;;;18.50;99.90;;;;;;5037627;28;20174;-82
2022/09/21 12:20:05;;;;;;;0.20;0.20;;;19.00;99.90;;;;;;5039031;28;20190;-81
2022/09/21 12:22:40;;;;;;;0.17;0.17;;;19.10;99.90;;;;;;5053413;28;20178;-81
2022/09/21 12:25:23;;;;;;;0.30;0.30;;;19.40;99.90;;;;;;5039596;28;20272;-81
2022/09/21 12:28:01;;;;;;;0.60;0.60;;;19.10;99.90;;;;;;5039989;28;20666;-81
2022/09/21 12:30:30;;;;;;;1.03;0.30;;;18.50;99.90;;;;;;5037940;28;20246;-81
2022/09/21 12:33:34;;;;;;;0.20;0.20;;;18.80;99.90;;;;;;5037604;28;20193;-81
2022/09/21 12:36:36;;;;;;;0.20;0.20;;;19.20;99.90;;;;;;5036259;28;20207;-80
2022/09/21 12:39:24;;;;;;;0.20;0.20;;;19.20;99.90;;;;;;5015686;28;20259;-80
2022/09/21 12:42:02;;;;;;;0.37;0.33;;;19.70;99.90;;;;;;5038980;28;20288;-80
2022/09/21 12:44:32;;;;;;;0.20;0.20;;;19.50;99.90;;;;;;5037875;28;20222;-81
2022/09/21 12:47:10;;;;;;;0.23;0.23;;;19.40;99.90;;;;;;5039932;28;20182;-81
2022/09/21 12:49:43;;;;;;;0.47;0.27;;;19.50;99.90;;;;;;5042058;28;20257;-81
2022/09/21 12:52:15;;;;;;;0.23;0.23;;;19.30;99.90;;;;;;5040990;28;20217;-81
2022/09/21 12:55:17;;;;;;;0.10;0.10;;;19.50;99.90;;;;;;5039071;28;20218;-81
2022/09/21 12:57:50;;;;;;;0.10;0.10;;;19.30;99.90;;;;;;5037819;28;20240;-81
2022/09/21 13:00:20;;;;;;;0.10;0.10;;;19.70;99.90;;;;;;5038690;28;20265;-81
2022/09/21 13:02:53;;;;;;;0.73;0.50;;;19.40;99.90;;;;;;5038494;28;20231;-81
2022/09/21 13:05:45;;;;;;;0.10;0.10;;;19.50;99.90;;;;;;5038216;28;20237;-81
2022/09/21 13:08:24;;;;;;;0.30;0.30;;;19.20;99.90;;;;;;5039132;28;20183;-81
2022/09/21 13:10:59;;;;;;;0.30;0.30;;;18.80;99.90;;;;;;5039689;28;20204;-81
2022/09/21 13:13:44;;;;;;;1.10;0.47;;;19.30;99.90;;;;;;5037404;28;20242;-81
2022/09/21 13:16:30;;;;;;;0.13;0.13;;;19.40;99.90;;;;;;5038777;28;20178;-81
2022/09/21 13:19:03;;;;;;;0.10;0.10;;;19.50;99.90;;;;;;5037657;28;20180;-83
2022/09/21 13:21:32;;;;;;;0.10;0.10;;;19.70;99.90;;;;;;5031736;28;20191;-81
2022/09/21 13:24:00;;;;;;;0.40;0.40;;;19.70;99.90;;;;;;5035215;28;20276;-81